sensor_id;sensor_type;location;lat;lon;timestamp;temperature;humidity
12622;DHT22;6376;48.182;-1.644;2023-03-14T00:00:58;13.20;87.50
12622;DHT22;6376;48.182;-1.644;2023-03-14T00:03:24;13.20;87.60
12622;DHT22;6376;48.182;-1.644;2023-03-14T00:05:49;13.20;87.60
12622;DHT22;6376;48.182;-1.644;2023-03-14T00:08:15;13.20;87.50
12622;DHT22;6376;48.182;-1.644;2023-03-14T00:10:41;13.20;87.60
12622;DHT22;6376;48.182;-1.644;2023-03-14T00:13:07;13.20;87.50
12622;DHT22;6376;48.182;-1.644;2023-03-14T00:15:34;13.20;87.50
12622;DHT22;6376;48.182;-1.644;2023-03-14T00:18:00;13.20;87.60
12622;DHT22;6376;48.182;-1.644;2023-03-14T00:20:26;13.20;87.60
12622;DHT22;6376;48.182;-1.644;2023-03-14T00:22:53;13.20;87.60
12622;DHT22;6376;48.182;-1.644;2023-03-14T00:25:19;13.20;87.60
12622;DHT22;6376;48.182;-1.644;2023-03-14T00:27:44;13.20;87.60
12622;DHT22;6376;48.182;-1.644;2023-03-14T00:30:11;13.20;87.60
12622;DHT22;6376;48.182;-1.644;2023-03-14T00:32:37;13.20;87.60
12622;DHT22;6376;48.182;-1.644;2023-03-14T00:35:03;13.20;87.70
12622;DHT22;6376;48.182;-1.644;2023-03-14T00:37:29;13.20;87.70
12622;DHT22;6376;48.182;-1.644;2023-03-14T00:39:55;13.20;87.70
12622;DHT22;6376;48.182;-1.644;2023-03-14T00:42:20;13.20;87.70
12622;DHT22;6376;48.182;-1.644;2023-03-14T00:44:46;13.20;87.60
12622;DHT22;6376;48.182;-1.644;2023-03-14T00:47:12;13.20;87.60
12622;DHT22;6376;48.182;-1.644;2023-03-14T00:49:37;13.10;87.60
12622;DHT22;6376;48.182;-1.644;2023-03-14T00:52:03;13.10;87.60
12622;DHT22;6376;48.182;-1.644;2023-03-14T00:54:29;13.20;87.50
12622;DHT22;6376;48.182;-1.644;2023-03-14T00:56:55;13.20;87.60
12622;DHT22;6376;48.182;-1.644;2023-03-14T00:59:21;13.20;87.70
12622;DHT22;6376;48.182;-1.644;2023-03-14T01:01:47;13.20;87.50
12622;DHT22;6376;48.182;-1.644;2023-03-14T01:04:13;13.20;87.60
12622;DHT22;6376;48.182;-1.644;2023-03-14T01:06:39;13.20;87.50
12622;DHT22;6376;48.182;-1.644;2023-03-14T01:09:04;13.20;87.60
12622;DHT22;6376;48.182;-1.644;2023-03-14T01:11:33;13.20;87.60
12622;DHT22;6376;48.182;-1.644;2023-03-14T01:14:01;13.20;87.70
12622;DHT22;6376;48.182;-1.644;2023-03-14T01:16:30;13.20;87.70
12622;DHT22;6376;48.182;-1.644;2023-03-14T01:18:56;13.10;87.70
12622;DHT22;6376;48.182;-1.644;2023-03-14T01:21:24;13.10;87.80
12622;DHT22;6376;48.182;-1.644;2023-03-14T01:23:51;13.10;87.90
12622;DHT22;6376;48.182;-1.644;2023-03-14T01:26:19;13.10;88.00
12622;DHT22;6376;48.182;-1.644;2023-03-14T01:28:46;13.10;88.00
12622;DHT22;6376;48.182;-1.644;2023-03-14T01:31:12;13.10;88.00
12622;DHT22;6376;48.182;-1.644;2023-03-14T01:33:38;13.10;88.00
12622;DHT22;6376;48.182;-1.644;2023-03-14T01:36:04;13.10;88.00
12622;DHT22;6376;48.182;-1.644;2023-03-14T01:38:31;13.00;87.90
12622;DHT22;6376;48.182;-1.644;2023-03-14T01:40:58;13.00;87.90
12622;DHT22;6376;48.182;-1.644;2023-03-14T01:43:24;13.00;87.90
12622;DHT22;6376;48.182;-1.644;2023-03-14T01:54:37;13.00;87.60
12622;DHT22;6376;48.182;-1.644;2023-03-14T01:57:12;13.00;87.60
12622;DHT22;6376;48.182;-1.644;2023-03-14T01:59:40;13.00;87.50
12622;DHT22;6376;48.182;-1.644;2023-03-14T02:02:09;13.00;87.40
12622;DHT22;6376;48.182;-1.644;2023-03-14T02:04:37;13.00;87.50
12622;DHT22;6376;48.182;-1.644;2023-03-14T02:07:22;13.00;87.20
12622;DHT22;6376;48.182;-1.644;2023-03-14T02:09:50;13.00;87.10
12622;DHT22;6376;48.182;-1.644;2023-03-14T02:12:17;13.00;87.20
12622;DHT22;6376;48.182;-1.644;2023-03-14T02:14:44;13.00;87.20
12622;DHT22;6376;48.182;-1.644;2023-03-14T02:17:14;13.00;87.20
12622;DHT22;6376;48.182;-1.644;2023-03-14T02:19:57;12.90;87.20
12622;DHT22;6376;48.182;-1.644;2023-03-14T02:22:26;12.90;87.00
12622;DHT22;6376;48.182;-1.644;2023-03-14T02:27:43;12.90;87.00
12622;DHT22;6376;48.182;-1.644;2023-03-14T02:30:13;12.90;87.00
12622;DHT22;6376;48.182;-1.644;2023-03-14T02:32:42;12.90;87.00
12622;DHT22;6376;48.182;-1.644;2023-03-14T02:35:12;12.90;87.00
12622;DHT22;6376;48.182;-1.644;2023-03-14T02:37:52;12.90;87.00
12622;DHT22;6376;48.182;-1.644;2023-03-14T02:40:19;12.90;87.20
12622;DHT22;6376;48.182;-1.644;2023-03-14T02:42:45;12.90;87.00
12622;DHT22;6376;48.182;-1.644;2023-03-14T02:47:58;12.90;87.00
12622;DHT22;6376;48.182;-1.644;2023-03-14T02:50:27;12.80;87.00
12622;DHT22;6376;48.182;-1.644;2023-03-14T02:52:54;12.80;87.00
12622;DHT22;6376;48.182;-1.644;2023-03-14T02:55:23;12.90;87.00
12622;DHT22;6376;48.182;-1.644;2023-03-14T02:57:50;12.80;86.90
12622;DHT22;6376;48.182;-1.644;2023-03-14T03:00:16;12.80;86.90
12622;DHT22;6376;48.182;-1.644;2023-03-14T03:02:42;12.80;86.80
12622;DHT22;6376;48.182;-1.644;2023-03-14T03:05:07;12.80;86.90
12622;DHT22;6376;48.182;-1.644;2023-03-14T03:07:33;12.80;87.50
12622;DHT22;6376;48.182;-1.644;2023-03-14T03:09:59;12.80;86.80
12622;DHT22;6376;48.182;-1.644;2023-03-14T03:12:24;12.80;86.80
12622;DHT22;6376;48.182;-1.644;2023-03-14T03:14:50;12.80;86.80
12622;DHT22;6376;48.182;-1.644;2023-03-14T03:17:16;12.80;86.90
12622;DHT22;6376;48.182;-1.644;2023-03-14T03:19:42;12.80;86.80
12622;DHT22;6376;48.182;-1.644;2023-03-14T03:22:07;12.80;86.90
12622;DHT22;6376;48.182;-1.644;2023-03-14T03:24:33;12.80;86.70
12622;DHT22;6376;48.182;-1.644;2023-03-14T03:26:58;12.80;86.70
12622;DHT22;6376;48.182;-1.644;2023-03-14T03:29:24;12.80;86.70
12622;DHT22;6376;48.182;-1.644;2023-03-14T03:31:50;12.80;86.60
12622;DHT22;6376;48.182;-1.644;2023-03-14T03:34:15;12.70;86.60
12622;DHT22;6376;48.182;-1.644;2023-03-14T03:36:41;12.70;86.60
12622;DHT22;6376;48.182;-1.644;2023-03-14T03:39:07;12.70;86.30
12622;DHT22;6376;48.182;-1.644;2023-03-14T03:41:33;12.70;86.40
12622;DHT22;6376;48.182;-1.644;2023-03-14T03:43:58;12.70;86.40
12622;DHT22;6376;48.182;-1.644;2023-03-14T03:46:24;12.70;86.30
12622;DHT22;6376;48.182;-1.644;2023-03-14T03:48:58;12.70;86.30
12622;DHT22;6376;48.182;-1.644;2023-03-14T03:51:24;12.70;86.10
12622;DHT22;6376;48.182;-1.644;2023-03-14T03:53:50;12.70;86.20
12622;DHT22;6376;48.182;-1.644;2023-03-14T03:56:16;12.70;86.10
12622;DHT22;6376;48.182;-1.644;2023-03-14T03:58:42;12.70;86.10
12622;DHT22;6376;48.182;-1.644;2023-03-14T04:01:09;12.70;86.10
12622;DHT22;6376;48.182;-1.644;2023-03-14T04:03:35;12.70;86.00
12622;DHT22;6376;48.182;-1.644;2023-03-14T04:06:03;12.70;86.10
12622;DHT22;6376;48.182;-1.644;2023-03-14T04:08:29;12.70;86.10
12622;DHT22;6376;48.182;-1.644;2023-03-14T04:10:57;12.70;86.00
12622;DHT22;6376;48.182;-1.644;2023-03-14T04:13:23;12.70;86.00
12622;DHT22;6376;48.182;-1.644;2023-03-14T04:15:49;12.70;85.90
12622;DHT22;6376;48.182;-1.644;2023-03-14T04:18:15;12.70;86.10
12622;DHT22;6376;48.182;-1.644;2023-03-14T04:20:40;12.70;86.00
12622;DHT22;6376;48.182;-1.644;2023-03-14T04:23:06;12.70;86.00
12622;DHT22;6376;48.182;-1.644;2023-03-14T04:25:32;12.70;86.00
12622;DHT22;6376;48.182;-1.644;2023-03-14T04:27:57;12.70;86.00
12622;DHT22;6376;48.182;-1.644;2023-03-14T04:30:23;12.70;86.00
12622;DHT22;6376;48.182;-1.644;2023-03-14T04:32:49;12.70;86.00
12622;DHT22;6376;48.182;-1.644;2023-03-14T04:35:15;12.60;86.10
12622;DHT22;6376;48.182;-1.644;2023-03-14T04:37:40;12.60;86.10
12622;DHT22;6376;48.182;-1.644;2023-03-14T04:40:09;12.60;86.10
12622;DHT22;6376;48.182;-1.644;2023-03-14T04:42:35;12.60;86.10
12622;DHT22;6376;48.182;-1.644;2023-03-14T04:45:00;12.60;86.10
12622;DHT22;6376;48.182;-1.644;2023-03-14T04:47:26;12.60;86.00
12622;DHT22;6376;48.182;-1.644;2023-03-14T04:49:52;12.60;86.00
12622;DHT22;6376;48.182;-1.644;2023-03-14T04:52:17;12.60;86.00
12622;DHT22;6376;48.182;-1.644;2023-03-14T04:54:43;12.60;86.00
12622;DHT22;6376;48.182;-1.644;2023-03-14T04:57:09;12.60;86.00
12622;DHT22;6376;48.182;-1.644;2023-03-14T04:59:34;12.60;86.00
12622;DHT22;6376;48.182;-1.644;2023-03-14T05:02:00;12.60;86.00
12622;DHT22;6376;48.182;-1.644;2023-03-14T05:04:26;12.60;85.90
12622;DHT22;6376;48.182;-1.644;2023-03-14T05:06:51;12.60;85.90
12622;DHT22;6376;48.182;-1.644;2023-03-14T05:09:17;12.60;85.80
12622;DHT22;6376;48.182;-1.644;2023-03-14T05:11:43;12.50;85.90
12622;DHT22;6376;48.182;-1.644;2023-03-14T05:14:08;12.50;85.90
12622;DHT22;6376;48.182;-1.644;2023-03-14T05:16:34;12.50;86.00
12622;DHT22;6376;48.182;-1.644;2023-03-14T05:19:00;12.50;86.00
12622;DHT22;6376;48.182;-1.644;2023-03-14T05:21:27;12.50;86.00
12622;DHT22;6376;48.182;-1.644;2023-03-14T05:23:52;12.50;85.90
12622;DHT22;6376;48.182;-1.644;2023-03-14T05:26:18;12.50;86.00
12622;DHT22;6376;48.182;-1.644;2023-03-14T05:28:44;12.50;86.00
12622;DHT22;6376;48.182;-1.644;2023-03-14T05:31:10;12.50;86.00
12622;DHT22;6376;48.182;-1.644;2023-03-14T05:33:35;12.50;86.00
12622;DHT22;6376;48.182;-1.644;2023-03-14T05:36:02;12.40;85.90
12622;DHT22;6376;48.182;-1.644;2023-03-14T05:38:27;12.40;86.00
12622;DHT22;6376;48.182;-1.644;2023-03-14T05:40:53;12.40;86.00
12622;DHT22;6376;48.182;-1.644;2023-03-14T05:43:19;12.40;86.70
12622;DHT22;6376;48.182;-1.644;2023-03-14T05:45:44;12.40;85.80
12622;DHT22;6376;48.182;-1.644;2023-03-14T05:48:10;12.40;85.90
12622;DHT22;6376;48.182;-1.644;2023-03-14T05:50:36;12.40;85.80
12622;DHT22;6376;48.182;-1.644;2023-03-14T05:53:02;12.40;85.80
12622;DHT22;6376;48.182;-1.644;2023-03-14T05:55:28;12.40;85.80
12622;DHT22;6376;48.182;-1.644;2023-03-14T05:57:54;12.40;85.80
12622;DHT22;6376;48.182;-1.644;2023-03-14T06:00:20;12.40;85.70
12622;DHT22;6376;48.182;-1.644;2023-03-14T06:02:46;12.40;85.80
12622;DHT22;6376;48.182;-1.644;2023-03-14T06:05:12;12.40;85.80
12622;DHT22;6376;48.182;-1.644;2023-03-14T06:07:37;12.40;85.70
12622;DHT22;6376;48.182;-1.644;2023-03-14T06:10:04;12.40;85.80
12622;DHT22;6376;48.182;-1.644;2023-03-14T06:12:29;12.30;85.70
12622;DHT22;6376;48.182;-1.644;2023-03-14T06:14:55;12.40;85.60
12622;DHT22;6376;48.182;-1.644;2023-03-14T06:17:21;12.40;85.70
12622;DHT22;6376;48.182;-1.644;2023-03-14T06:19:46;12.30;85.60
12622;DHT22;6376;48.182;-1.644;2023-03-14T06:22:12;12.30;85.60
12622;DHT22;6376;48.182;-1.644;2023-03-14T06:24:38;12.30;85.60
12622;DHT22;6376;48.182;-1.644;2023-03-14T06:27:04;12.30;85.70
12622;DHT22;6376;48.182;-1.644;2023-03-14T06:29:30;12.30;85.60
12622;DHT22;6376;48.182;-1.644;2023-03-14T06:31:56;12.30;85.60
12622;DHT22;6376;48.182;-1.644;2023-03-14T06:34:21;12.30;85.60
12622;DHT22;6376;48.182;-1.644;2023-03-14T06:36:47;12.30;85.60
12622;DHT22;6376;48.182;-1.644;2023-03-14T06:39:13;12.30;85.60
12622;DHT22;6376;48.182;-1.644;2023-03-14T06:41:38;12.30;85.60
12622;DHT22;6376;48.182;-1.644;2023-03-14T06:44:04;12.30;85.50
12622;DHT22;6376;48.182;-1.644;2023-03-14T06:46:30;12.30;85.50
12622;DHT22;6376;48.182;-1.644;2023-03-14T06:48:55;12.30;85.30
12622;DHT22;6376;48.182;-1.644;2023-03-14T06:51:21;12.30;85.30
12622;DHT22;6376;48.182;-1.644;2023-03-14T06:53:47;12.30;85.30
12622;DHT22;6376;48.182;-1.644;2023-03-14T06:56:12;12.30;85.50
12622;DHT22;6376;48.182;-1.644;2023-03-14T06:58:38;12.30;85.30
12622;DHT22;6376;48.182;-1.644;2023-03-14T07:01:04;12.30;85.40
12622;DHT22;6376;48.182;-1.644;2023-03-14T07:03:30;12.30;86.10
12622;DHT22;6376;48.182;-1.644;2023-03-14T07:05:55;12.30;85.30
12622;DHT22;6376;48.182;-1.644;2023-03-14T07:08:21;12.30;85.30
12622;DHT22;6376;48.182;-1.644;2023-03-14T07:10:47;12.30;85.20
12622;DHT22;6376;48.182;-1.644;2023-03-14T07:13:13;12.30;85.20
12622;DHT22;6376;48.182;-1.644;2023-03-14T07:15:38;12.30;85.10
12622;DHT22;6376;48.182;-1.644;2023-03-14T07:18:04;12.30;85.20
12622;DHT22;6376;48.182;-1.644;2023-03-14T07:20:29;12.30;85.20
12622;DHT22;6376;48.182;-1.644;2023-03-14T07:22:57;12.30;85.20
12622;DHT22;6376;48.182;-1.644;2023-03-14T07:25:25;12.30;85.40
12622;DHT22;6376;48.182;-1.644;2023-03-14T07:27:51;12.20;85.30
12622;DHT22;6376;48.182;-1.644;2023-03-14T07:30:17;12.20;85.30
12622;DHT22;6376;48.182;-1.644;2023-03-14T07:32:42;12.20;85.20
12622;DHT22;6376;48.182;-1.644;2023-03-14T07:35:09;12.30;85.20
12622;DHT22;6376;48.182;-1.644;2023-03-14T07:37:34;12.30;85.20
12622;DHT22;6376;48.182;-1.644;2023-03-14T07:40:00;12.30;85.20
12622;DHT22;6376;48.182;-1.644;2023-03-14T07:42:25;12.30;84.90
12622;DHT22;6376;48.182;-1.644;2023-03-14T07:44:51;12.30;84.90
12622;DHT22;6376;48.182;-1.644;2023-03-14T07:47:17;12.30;84.90
12622;DHT22;6376;48.182;-1.644;2023-03-14T07:49:42;12.30;84.80
12622;DHT22;6376;48.182;-1.644;2023-03-14T07:52:08;12.40;84.80
12622;DHT22;6376;48.182;-1.644;2023-03-14T07:54:34;12.40;84.70
12622;DHT22;6376;48.182;-1.644;2023-03-14T07:57:00;12.40;84.80
12622;DHT22;6376;48.182;-1.644;2023-03-14T07:59:27;12.40;84.70
12622;DHT22;6376;48.182;-1.644;2023-03-14T08:01:53;12.40;84.70
12622;DHT22;6376;48.182;-1.644;2023-03-14T08:04:18;12.40;84.60
12622;DHT22;6376;48.182;-1.644;2023-03-14T08:06:44;12.40;84.60
12622;DHT22;6376;48.182;-1.644;2023-03-14T08:09:10;12.40;84.60
12622;DHT22;6376;48.182;-1.644;2023-03-14T08:11:35;12.40;84.40
12622;DHT22;6376;48.182;-1.644;2023-03-14T08:14:01;12.50;84.00
12622;DHT22;6376;48.182;-1.644;2023-03-14T08:16:27;12.50;83.90
12622;DHT22;6376;48.182;-1.644;2023-03-14T08:18:53;12.50;83.90
12622;DHT22;6376;48.182;-1.644;2023-03-14T08:21:18;12.40;83.90
12622;DHT22;6376;48.182;-1.644;2023-03-14T08:23:44;12.80;83.00
12622;DHT22;6376;48.182;-1.644;2023-03-14T08:26:10;13.40;79.80
12622;DHT22;6376;48.182;-1.644;2023-03-14T08:28:35;14.00;77.10
12622;DHT22;6376;48.182;-1.644;2023-03-14T08:31:01;14.50;74.20
12622;DHT22;6376;48.182;-1.644;2023-03-14T08:33:28;14.80;73.10
12622;DHT22;6376;48.182;-1.644;2023-03-14T08:35:55;15.00;72.20
12622;DHT22;6376;48.182;-1.644;2023-03-14T08:38:21;14.80;72.50
12622;DHT22;6376;48.182;-1.644;2023-03-14T08:40:47;14.60;74.00
12622;DHT22;6376;48.182;-1.644;2023-03-14T08:43:13;15.10;72.00
12622;DHT22;6376;48.182;-1.644;2023-03-14T08:45:38;15.30;70.90
12622;DHT22;6376;48.182;-1.644;2023-03-14T08:48:04;15.50;70.40
12622;DHT22;6376;48.182;-1.644;2023-03-14T08:50:30;15.50;69.80
12622;DHT22;6376;48.182;-1.644;2023-03-14T08:52:56;15.20;70.40
12622;DHT22;6376;48.182;-1.644;2023-03-14T08:55:25;14.30;73.90
12622;DHT22;6376;48.182;-1.644;2023-03-14T08:57:52;13.80;76.50
12622;DHT22;6376;48.182;-1.644;2023-03-14T09:00:19;14.20;76.00
12622;DHT22;6376;48.182;-1.644;2023-03-14T09:02:44;14.40;74.90
12622;DHT22;6376;48.182;-1.644;2023-03-14T09:05:11;14.60;74.30
12622;DHT22;6376;48.182;-1.644;2023-03-14T09:07:37;14.60;73.80
12622;DHT22;6376;48.182;-1.644;2023-03-14T09:10:04;14.50;74.50
12622;DHT22;6376;48.182;-1.644;2023-03-14T09:12:29;14.40;74.70
12622;DHT22;6376;48.182;-1.644;2023-03-14T09:14:56;14.30;75.10
12622;DHT22;6376;48.182;-1.644;2023-03-14T09:17:21;14.10;75.80
12622;DHT22;6376;48.182;-1.644;2023-03-14T09:19:47;14.00;76.10
12622;DHT22;6376;48.182;-1.644;2023-03-14T09:22:12;13.90;77.60
12622;DHT22;6376;48.182;-1.644;2023-03-14T09:24:40;14.00;76.60
12622;DHT22;6376;48.182;-1.644;2023-03-14T09:27:06;14.10;75.90
12622;DHT22;6376;48.182;-1.644;2023-03-14T09:29:32;14.20;75.70
12622;DHT22;6376;48.182;-1.644;2023-03-14T09:31:58;14.20;75.40
12622;DHT22;6376;48.182;-1.644;2023-03-14T09:34:24;14.30;75.10
12622;DHT22;6376;48.182;-1.644;2023-03-14T09:36:49;14.30;74.90
12622;DHT22;6376;48.182;-1.644;2023-03-14T09:39:15;14.30;75.10
12622;DHT22;6376;48.182;-1.644;2023-03-14T09:41:45;14.30;74.90
12622;DHT22;6376;48.182;-1.644;2023-03-14T09:46:45;14.20;75.40
12622;DHT22;6376;48.182;-1.644;2023-03-14T09:49:27;14.30;75.30
12622;DHT22;6376;48.182;-1.644;2023-03-14T09:51:55;14.10;75.40
12622;DHT22;6376;48.182;-1.644;2023-03-14T09:55:22;14.10;75.50
12622;DHT22;6376;48.182;-1.644;2023-03-14T09:57:29;14.00;75.70
12622;DHT22;6376;48.182;-1.644;2023-03-14T10:00:03;14.20;75.50
12622;DHT22;6376;48.182;-1.644;2023-03-14T10:02:38;14.20;75.30
12622;DHT22;6376;48.182;-1.644;2023-03-14T10:05:13;14.20;75.50
12622;DHT22;6376;48.182;-1.644;2023-03-14T10:07:40;14.00;75.90
12622;DHT22;6376;48.182;-1.644;2023-03-14T10:10:11;13.90;76.50
12622;DHT22;6376;48.182;-1.644;2023-03-14T10:12:38;13.80;76.90
12622;DHT22;6376;48.182;-1.644;2023-03-14T10:17:45;13.90;76.40
12622;DHT22;6376;48.182;-1.644;2023-03-14T10:28:31;13.90;76.40
12622;DHT22;6376;48.182;-1.644;2023-03-14T10:30:58;13.90;76.30
12622;DHT22;6376;48.182;-1.644;2023-03-14T10:33:25;14.00;75.80
12622;DHT22;6376;48.182;-1.644;2023-03-14T10:38:28;14.00;75.50
12622;DHT22;6376;48.182;-1.644;2023-03-14T10:40:55;14.10;75.60
12622;DHT22;6376;48.182;-1.644;2023-03-14T10:43:49;14.20;75.00
12622;DHT22;6376;48.182;-1.644;2023-03-14T10:46:17;14.10;74.80
12622;DHT22;6376;48.182;-1.644;2023-03-14T10:48:44;14.10;74.90
12622;DHT22;6376;48.182;-1.644;2023-03-14T10:53:46;14.30;74.40
12622;DHT22;6376;48.182;-1.644;2023-03-14T10:56:18;14.40;74.10
12622;DHT22;6376;48.182;-1.644;2023-03-14T10:58:46;14.40;73.90
12622;DHT22;6376;48.182;-1.644;2023-03-14T11:09:23;14.40;73.80
12622;DHT22;6376;48.182;-1.644;2023-03-14T11:11:51;14.40;73.70
12622;DHT22;6376;48.182;-1.644;2023-03-14T11:14:40;14.50;73.60
12622;DHT22;6376;48.182;-1.644;2023-03-14T11:17:15;14.40;73.70
12622;DHT22;6376;48.182;-1.644;2023-03-14T11:22:43;14.30;74.30
12622;DHT22;6376;48.182;-1.644;2023-03-14T11:25:23;14.30;74.20
12622;DHT22;6376;48.182;-1.644;2023-03-14T11:33:17;14.20;74.50
12622;DHT22;6376;48.182;-1.644;2023-03-14T11:36:08;14.10;74.50
12622;DHT22;6376;48.182;-1.644;2023-03-14T11:38:49;14.30;74.40
12622;DHT22;6376;48.182;-1.644;2023-03-14T11:41:29;14.30;73.80
12622;DHT22;6376;48.182;-1.644;2023-03-14T11:43:58;14.30;74.10
12622;DHT22;6376;48.182;-1.644;2023-03-14T11:46:52;14.50;73.50
12622;DHT22;6376;48.182;-1.644;2023-03-14T11:49:31;14.30;73.60
12622;DHT22;6376;48.182;-1.644;2023-03-14T11:52:03;14.20;74.50
12622;DHT22;6376;48.182;-1.644;2023-03-14T11:54:36;14.20;74.70
12622;DHT22;6376;48.182;-1.644;2023-03-14T11:57:19;14.10;74.50
12622;DHT22;6376;48.182;-1.644;2023-03-14T12:02:45;14.00;74.70
12622;DHT22;6376;48.182;-1.644;2023-03-14T12:13:34;13.90;75.20
12622;DHT22;6376;48.182;-1.644;2023-03-14T12:16:05;13.90;75.40
12622;DHT22;6376;48.182;-1.644;2023-03-14T12:21:00;13.90;75.20
12622;DHT22;6376;48.182;-1.644;2023-03-14T12:23:33;13.90;75.60
12622;DHT22;6376;48.182;-1.644;2023-03-14T12:26:14;13.90;75.80
12622;DHT22;6376;48.182;-1.644;2023-03-14T12:42:15;13.80;75.30
12622;DHT22;6376;48.182;-1.644;2023-03-14T12:44:47;13.80;75.50
12622;DHT22;6376;48.182;-1.644;2023-03-14T12:49:42;13.80;75.20
12622;DHT22;6376;48.182;-1.644;2023-03-14T12:52:19;13.80;75.20
12622;DHT22;6376;48.182;-1.644;2023-03-14T12:54:57;13.80;75.00
12622;DHT22;6376;48.182;-1.644;2023-03-14T12:57:45;13.80;75.00
12622;DHT22;6376;48.182;-1.644;2023-03-14T13:00:23;13.80;74.90
12622;DHT22;6376;48.182;-1.644;2023-03-14T13:02:50;13.90;75.00
12622;DHT22;6376;48.182;-1.644;2023-03-14T13:05:21;13.80;74.90
12622;DHT22;6376;48.182;-1.644;2023-03-14T13:11:00;13.80;74.90
12622;DHT22;6376;48.182;-1.644;2023-03-14T13:13:24;13.80;74.90
12622;DHT22;6376;48.182;-1.644;2023-03-14T13:15:56;13.80;74.90
12622;DHT22;6376;48.182;-1.644;2023-03-14T13:18:36;13.80;74.70
12622;DHT22;6376;48.182;-1.644;2023-03-14T13:21:18;13.70;74.60
12622;DHT22;6376;48.182;-1.644;2023-03-14T13:24:05;13.80;74.50
12622;DHT22;6376;48.182;-1.644;2023-03-14T13:26:37;13.70;74.30
12622;DHT22;6376;48.182;-1.644;2023-03-14T13:29:24;13.70;74.00
12622;DHT22;6376;48.182;-1.644;2023-03-14T13:31:52;13.60;74.00
12622;DHT22;6376;48.182;-1.644;2023-03-14T13:34:19;13.40;74.40
12622;DHT22;6376;48.182;-1.644;2023-03-14T13:36:45;13.40;75.60
12622;DHT22;6376;48.182;-1.644;2023-03-14T13:39:14;13.40;75.90
12622;DHT22;6376;48.182;-1.644;2023-03-14T13:41:41;13.50;75.30
12622;DHT22;6376;48.182;-1.644;2023-03-14T13:44:36;13.40;75.00
12622;DHT22;6376;48.182;-1.644;2023-03-14T13:47:04;13.30;75.20
12622;DHT22;6376;48.182;-1.644;2023-03-14T13:49:32;13.30;75.50
12622;DHT22;6376;48.182;-1.644;2023-03-14T13:52:01;13.30;75.60
12622;DHT22;6376;48.182;-1.644;2023-03-14T13:54:27;13.30;75.80
12622;DHT22;6376;48.182;-1.644;2023-03-14T13:57:01;13.30;75.80
12622;DHT22;6376;48.182;-1.644;2023-03-14T13:59:29;13.40;75.90
12622;DHT22;6376;48.182;-1.644;2023-03-14T14:01:57;13.40;75.30
12622;DHT22;6376;48.182;-1.644;2023-03-14T14:04:25;13.40;74.90
12622;DHT22;6376;48.182;-1.644;2023-03-14T14:07:01;13.40;75.30
12622;DHT22;6376;48.182;-1.644;2023-03-14T14:09:37;13.40;75.30
12622;DHT22;6376;48.182;-1.644;2023-03-14T14:12:05;13.30;75.50
12622;DHT22;6376;48.182;-1.644;2023-03-14T14:14:35;13.30;75.50
12622;DHT22;6376;48.182;-1.644;2023-03-14T14:17:08;13.30;75.60
12622;DHT22;6376;48.182;-1.644;2023-03-14T14:19:35;13.30;75.30
12622;DHT22;6376;48.182;-1.644;2023-03-14T14:22:02;13.30;75.40
12622;DHT22;6376;48.182;-1.644;2023-03-14T14:24:31;13.30;74.90
12622;DHT22;6376;48.182;-1.644;2023-03-14T14:27:13;13.30;74.70
12622;DHT22;6376;48.182;-1.644;2023-03-14T14:29:39;13.30;74.90
12622;DHT22;6376;48.182;-1.644;2023-03-14T14:34:45;13.30;75.00
12622;DHT22;6376;48.182;-1.644;2023-03-14T14:39:47;13.30;75.20
12622;DHT22;6376;48.182;-1.644;2023-03-14T14:42:18;13.30;74.80
12622;DHT22;6376;48.182;-1.644;2023-03-14T14:44:47;13.30;74.60
12622;DHT22;6376;48.182;-1.644;2023-03-14T14:47:19;13.30;74.70
12622;DHT22;6376;48.182;-1.644;2023-03-14T14:49:47;13.30;74.60
12622;DHT22;6376;48.182;-1.644;2023-03-14T14:52:17;13.30;74.40
12622;DHT22;6376;48.182;-1.644;2023-03-14T14:54:50;13.30;74.50
12622;DHT22;6376;48.182;-1.644;2023-03-14T14:57:26;13.40;73.90
12622;DHT22;6376;48.182;-1.644;2023-03-14T14:59:57;13.40;73.80
12622;DHT22;6376;48.182;-1.644;2023-03-14T15:02:34;13.50;73.30
12622;DHT22;6376;48.182;-1.644;2023-03-14T15:05:01;13.50;73.00
12622;DHT22;6376;48.182;-1.644;2023-03-14T15:07:26;13.50;72.50
12622;DHT22;6376;48.182;-1.644;2023-03-14T15:09:52;13.50;72.50
12622;DHT22;6376;48.182;-1.644;2023-03-14T15:12:18;13.50;72.20
12622;DHT22;6376;48.182;-1.644;2023-03-14T15:14:43;13.50;72.20
12622;DHT22;6376;48.182;-1.644;2023-03-14T15:17:10;13.60;72.20
12622;DHT22;6376;48.182;-1.644;2023-03-14T15:19:38;13.60;72.70
12622;DHT22;6376;48.182;-1.644;2023-03-14T15:22:08;13.60;73.00
12622;DHT22;6376;48.182;-1.644;2023-03-14T15:24:36;13.60;72.90
12622;DHT22;6376;48.182;-1.644;2023-03-14T15:27:02;13.60;72.80
12622;DHT22;6376;48.182;-1.644;2023-03-14T15:29:28;13.60;72.80
12622;DHT22;6376;48.182;-1.644;2023-03-14T15:31:54;13.60;73.10
12622;DHT22;6376;48.182;-1.644;2023-03-14T15:34:19;13.60;73.30
12622;DHT22;6376;48.182;-1.644;2023-03-14T15:36:45;13.60;73.40
12622;DHT22;6376;48.182;-1.644;2023-03-14T15:39:10;13.60;73.10
12622;DHT22;6376;48.182;-1.644;2023-03-14T15:41:37;13.60;73.30
12622;DHT22;6376;48.182;-1.644;2023-03-14T15:44:03;13.60;73.30
12622;DHT22;6376;48.182;-1.644;2023-03-14T15:46:29;13.60;72.80
12622;DHT22;6376;48.182;-1.644;2023-03-14T15:48:54;13.50;72.50
12622;DHT22;6376;48.182;-1.644;2023-03-14T15:51:20;13.50;72.60
12622;DHT22;6376;48.182;-1.644;2023-03-14T15:53:46;13.50;72.60
12622;DHT22;6376;48.182;-1.644;2023-03-14T15:56:14;13.50;72.50
12622;DHT22;6376;48.182;-1.644;2023-03-14T15:58:40;13.50;72.50
12622;DHT22;6376;48.182;-1.644;2023-03-14T16:01:07;13.50;72.40
12622;DHT22;6376;48.182;-1.644;2023-03-14T16:03:36;13.50;72.60
12622;DHT22;6376;48.182;-1.644;2023-03-14T16:06:03;13.40;72.80
12622;DHT22;6376;48.182;-1.644;2023-03-14T16:08:29;13.40;72.70
12622;DHT22;6376;48.182;-1.644;2023-03-14T16:10:56;13.50;72.80
12622;DHT22;6376;48.182;-1.644;2023-03-14T16:13:22;13.50;72.70
12622;DHT22;6376;48.182;-1.644;2023-03-14T16:16:02;13.40;72.60
12622;DHT22;6376;48.182;-1.644;2023-03-14T16:18:33;13.40;72.60
12622;DHT22;6376;48.182;-1.644;2023-03-14T16:21:01;13.40;72.80
12622;DHT22;6376;48.182;-1.644;2023-03-14T16:23:28;13.40;72.70
12622;DHT22;6376;48.182;-1.644;2023-03-14T16:25:54;13.40;72.50
12622;DHT22;6376;48.182;-1.644;2023-03-14T16:28:20;13.40;72.40
12622;DHT22;6376;48.182;-1.644;2023-03-14T16:30:46;13.40;72.40
12622;DHT22;6376;48.182;-1.644;2023-03-14T16:33:13;13.40;72.40
12622;DHT22;6376;48.182;-1.644;2023-03-14T16:35:39;13.30;72.70
12622;DHT22;6376;48.182;-1.644;2023-03-14T16:38:06;13.30;72.80
12622;DHT22;6376;48.182;-1.644;2023-03-14T16:40:32;13.20;73.00
12622;DHT22;6376;48.182;-1.644;2023-03-14T16:42:57;13.20;73.30
12622;DHT22;6376;48.182;-1.644;2023-03-14T16:45:23;13.20;73.30
12622;DHT22;6376;48.182;-1.644;2023-03-14T16:47:49;13.10;73.30
12622;DHT22;6376;48.182;-1.644;2023-03-14T16:50:15;13.10;73.50
12622;DHT22;6376;48.182;-1.644;2023-03-14T16:52:40;13.10;73.60
12622;DHT22;6376;48.182;-1.644;2023-03-14T16:55:06;13.10;73.70
12622;DHT22;6376;48.182;-1.644;2023-03-14T16:57:33;13.00;73.80
12622;DHT22;6376;48.182;-1.644;2023-03-14T16:59:59;13.00;73.80
12622;DHT22;6376;48.182;-1.644;2023-03-14T17:02:24;13.00;73.90